Flight Track Log - Related Links

Times and Time Zones

All times are in EDT time to prevent confusion due to time zone crossing. See the N670MW flight status page for this flight to view local times or setup timezone preferences in your user account.

Time Position Orientation Groundspeed Altitude Reporting Facility
EDT Latitude Longitude Course Direction KTS MPH feet Rate Location/Type
Wed 07:55:46 AM 39.7000 -75.6000 322° Northwest 164 189 700  Level Philadelphia TRACON
Wed 07:56:17 AM 39.7167 -75.6167 322° Northwest 215 247 1,600 2,533 Climbing Philadelphia TRACON
Wed 07:57:16 AM 39.7667 -75.6833 314° West 252 290 4,500 2,319 Climbing Philadelphia TRACON
Wed 07:58:16 AM 39.8333 -75.7000 349° North 268 308 6,200 2,227 Climbing Philadelphia TRACON
Wed 07:58:53 AM 39.8736 -75.6803 21° North 273 314 8,100 2,351 Climbing New York Center
Wed 07:59:53 AM 39.9564 -75.6456 18° North 308 354 10,000 1,000 Climbing New York Center
Wed 08:00:53 AM 40.0303 -75.6261 11° North 365 420 10,100 1,000 Climbing New York Center
Wed 08:01:53 AM 40.1297 -75.5925 14° North 351 404 12,000 1,950 Climbing New York Center
Wed 08:02:53 AM 40.2239 -75.5800 North 344 396 14,000 2,000 Climbing New York Center
Wed 08:03:53 AM 40.2956 -75.6639 318° Northwest 313 360 16,000 1,700 Climbing New York Center
Wed 08:04:53 AM 40.3519 -75.7578 308° West 333 383 17,400 1,350 Climbing New York Center
Wed 08:05:53 AM 40.4081 -75.8628 305° West 355 409 18,700 1,600 Climbing New York Center
Wed 08:06:53 AM 40.4353 -76.0036 284° West 361 415 20,600 1,950 Climbing New York Center
Wed 08:07:53 AM 40.4608 -76.1311 285° West 361 415 22,600 2,000 Climbing New York Center
Wed 08:08:53 AM 40.4842 -76.2586 284° West 361 415 24,600 2,000 Climbing New York Center
Wed 08:09:53 AM 40.5117 -76.3836 286° West 361 415 26,600 1,950 Climbing New York Center
Wed 08:10:53 AM 40.5453 -76.5039 290° West 361 415 28,500 1,950 Climbing New York Center
Wed 08:11:53 AM 40.5772 -76.6211 290° West 354 407 30,500 1,950 Climbing New York Center
Wed 08:12:53 AM 40.6089 -76.7361 290° West 349 402 32,400 1,600 Climbing New York Center
Wed 08:13:53 AM 40.6422 -76.8567 290° West 343 395 33,700 1,150 Climbing New York Center
Wed 08:14:53 AM 40.6758 -76.9744 291° West 348 400 34,700 1,000 Climbing New York Center
Wed 08:15:53 AM 40.7108 -77.1008 290° West 359 413 35,700 900 Climbing New York Center
Wed 08:16:53 AM 40.7403 -77.2106 290° West 359 413 36,500 950 Climbing New York Center
Wed 08:17:53 AM 40.7783 -77.3511 290° West 359 413 37,600 1,050 Climbing New York Center
Wed 08:18:53 AM 40.8150 -77.4781 291° West 364 419 38,600 1,000 Climbing New York Center
Wed 08:19:53 AM 40.8475 -77.6047 289° West 364 419 39,600 950 Climbing New York Center
Wed 08:20:53 AM 40.8800 -77.7261 290° West 364 419 40,500 809 Climbing New York Center
Wed 08:22:51 AM 40.9433 -77.9639 289° West 355 409 42,000 667 Climbing Cleveland Center
Wed 08:23:53 AM 40.9758 -78.0847 290° West 352 405 42,500 484 Climbing Cleveland Center
Wed 08:24:55 AM 41.0283 -78.1933 303° West 355 409 43,000 242 Climbing Cleveland Center
Wed 08:25:57 AM 41.0922 -78.2981 309° West 358 412 43,000  Level Cleveland Center
Wed 08:26:59 AM 41.1553 -78.4039 308° West 366 421 43,000  Level Cleveland Center
Wed 08:28:01 AM 41.2353 -78.5344 309° West 380 437 43,000  Level Cleveland Center
Wed 08:29:04 AM 41.3047 -78.6475 309° West 397 457 43,000  Level Cleveland Center
Wed 08:30:05 AM 41.3717 -78.7608 308° West 391 450 43,000  Level Cleveland Center
Wed 08:31:08 AM 41.4481 -78.8875 309° West 399 459 43,000  Level Cleveland Center
Wed 08:32:10 AM 41.5164 -79.0031 308° West 401 461 43,000  Level Cleveland Center
Wed 08:33:12 AM 41.5861 -79.1197 309° West 403 464 43,000  Level Cleveland Center
Wed 08:34:14 AM 41.6633 -79.2483 309° West 407 468 43,000  Level Cleveland Center
Wed 08:35:16 AM 41.7389 -79.3781 308° West 404 465 43,000  Level Cleveland Center
Wed 08:36:18 AM 41.8078 -79.4939 309° West 401 461 43,000  Level Cleveland Center
Wed 08:37:20 AM 41.8764 -79.6108 308° West 401 461 43,000  Level Cleveland Center
Wed 08:38:22 AM 41.9442 -79.7294 308° West 401 461 43,000  Level Cleveland Center
Wed 08:39:24 AM 42.0125 -79.8467 308° West 402 463 43,000  Level Cleveland Center
Wed 08:40:26 AM 42.0808 -79.9642 308° West 401 461 43,000  Level Cleveland Center
Wed 08:41:28 AM 42.1567 -80.0992 307° West 406 467 43,000  Level Cleveland Center
Wed 08:42:30 AM 42.2250 -80.2186 308° West 402 463 43,000  Level Cleveland Center
Wed 08:43:32 AM 42.2939 -80.3383 308° West 404 465 43,000  Level Cleveland Center
Wed 08:44:34 AM 42.3719 -80.4781 307° West 400 460 43,000  Level Cleveland Center
Wed 08:45:36 AM 42.4403 -80.5983 308° West 402 463 43,000  Level Cleveland Center
Wed 08:46:38 AM 42.5089 -80.7211 307° West 404 465 43,000  Level Cleveland Center
Wed 08:47:40 AM 42.5769 -80.8425 307° West 403 464 43,000  Level Cleveland Center
Wed 08:48:42 AM 42.6450 -80.9625 308° West 399 459 43,000  Level Cleveland Center
Wed 08:49:44 AM 42.7125 -81.0844 307° West 401 461 43,000  Level Cleveland Center
Wed 08:50:46 AM 42.7908 -81.2272 307° West 401 461 43,000  Level Cleveland Center
Wed 08:51:48 AM 42.8592 -81.3514 307° West 405 466 43,000  Level Cleveland Center
Wed 08:52:26 AM 42.8933 -81.4117 308° West 403 464 43,000  Level Cleveland Center
Wed 08:53:28 AM 42.9739 -81.5528 308° West 401 461 43,000 -57 Level Cleveland Center
Wed 08:54:12 AM 43.0167 -81.6167 312° West 410 472 42,900  Descending Toronto Center
Wed 08:55:12 AM 43.0833 -81.7500 304° West 400 460 43,000 50 Climbing Toronto Center
Wed 08:56:12 AM 43.1500 -81.8667 308° West 400 460 43,000  Level Toronto Center
Wed 08:57:12 AM 43.2000 -81.9833 300° West 400 460 43,000  Level Toronto Center
Wed 08:58:12 AM 43.2667 -82.1333 301° West 400 460 43,000  Level Toronto Center
Wed 08:59:12 AM 43.3333 -82.2500 308° West 390 449 43,000  Level Toronto Center
Wed 09:00:12 AM 43.4000 -82.3667 308° West 390 449 43,000  Level Toronto Center
Wed 09:00:43 AM 43.4364 -82.4189 314° West 389 448 43,000  Level Cleveland Center
Wed 09:01:45 AM 43.5003 -82.5383 306° West 389 448 43,000  Level Cleveland Center
Wed 09:02:47 AM 43.5619 -82.6569 306° West 384 442 43,000  Level Cleveland Center
Wed 09:03:49 AM 43.6378 -82.8014 306° West 387 445 43,000  Level Cleveland Center
Wed 09:04:51 AM 43.7006 -82.9217 306° West 387 445 43,000  Level Cleveland Center
Wed 09:05:53 AM 43.7631 -83.0403 306° West 385 443 43,000  Level Cleveland Center
Wed 09:06:55 AM 43.8261 -83.1658 305° West 394 453 43,000  Level Cleveland Center
Wed 09:07:54 AM 43.8847 -83.2778 306° West 389 448 43,000  Level Minneapolis Center
Wed 09:08:55 AM 43.9611 -83.4244 306° West 391 450 43,000  Level Minneapolis Center
Wed 09:09:57 AM 44.0233 -83.5469 305° West 391 450 43,000  Level Minneapolis Center
Wed 09:10:59 AM 44.0861 -83.6692 306° West 390 449 43,000  Level Minneapolis Center
Wed 09:12:01 AM 44.1492 -83.7928 305° West 391 450 43,000  Level Minneapolis Center
Wed 09:13:03 AM 44.2117 -83.9169 305° West 392 451 43,000  Level Minneapolis Center
Wed 09:14:04 AM 44.2744 -84.0403 305° West 392 451 43,000  Level Minneapolis Center
Wed 09:15:06 AM 44.3486 -84.1894 305° West 392 451 43,000  Level Minneapolis Center
Wed 09:16:08 AM 44.4106 -84.3136 305° West 391 450 43,000  Level Minneapolis Center
Wed 09:17:10 AM 44.4719 -84.4397 304° West 393 452 43,000  Level Minneapolis Center
Wed 09:18:11 AM 44.5361 -84.5658 306° West 397 457 43,000  Level Minneapolis Center
Wed 09:19:13 AM 44.5975 -84.6906 305° West 392 451 43,000  Level Minneapolis Center
Wed 09:20:15 AM 44.6578 -84.8153 304° West 390 449 43,000  Level Minneapolis Center
Wed 09:21:17 AM 44.7197 -84.9394 305° West 388 447 43,000  Level Minneapolis Center
Wed 09:22:18 AM 44.7925 -85.0903 304° West 391 450 43,000  Level Minneapolis Center
Wed 09:23:20 AM 44.8528 -85.2164 304° West 390 449 43,000  Level Minneapolis Center
Wed 09:24:22 AM 44.9133 -85.3411 304° West 389 448 43,000  Level Minneapolis Center
Wed 09:25:24 AM 44.9739 -85.4675 304° West 391 450 43,000  Level Minneapolis Center
Wed 09:26:25 AM 45.0339 -85.5922 304° West 389 448 43,000  Level Minneapolis Center
Wed 09:27:27 AM 45.0983 -85.7311 303° West 389 448 43,000  Level Minneapolis Center
Wed 09:28:28 AM 45.1639 -85.8683 304° West 387 445 43,000  Level Minneapolis Center
Wed 09:29:30 AM 45.2228 -85.9944 304° West 388 447 43,000  Level Minneapolis Center
Wed 09:30:32 AM 45.2817 -86.1206 304° West 388 447 43,000  Level Minneapolis Center
Wed 09:31:33 AM 45.3408 -86.2478 304° West 388 447 43,000  Level Minneapolis Center
Wed 09:32:35 AM 45.4000 -86.3756 303° West 388 447 43,000  Level Minneapolis Center
Wed 09:33:37 AM 45.4583 -86.5036 303° West 388 447 43,000  Level Minneapolis Center
Wed 09:34:38 AM 45.5286 -86.6544 304° West 383 441 43,000  Level Minneapolis Center
Wed 09:35:40 AM 45.5875 -86.7833 303° West 388 447 43,000  Level Minneapolis Center
Wed 09:36:42 AM 45.6464 -86.9114 303° West 387 445 43,000  Level Minneapolis Center
Wed 09:37:44 AM 45.7036 -87.0406 302° West 386 444 43,000  Level Minneapolis Center
Wed 09:38:45 AM 45.7619 -87.1692 303° West 386 444 43,000  Level Minneapolis Center
Wed 09:39:47 AM 45.8194 -87.2975 303° West 384 442 43,000  Level Minneapolis Center
Wed 09:40:49 AM 45.8769 -87.4264 303° West 385 443 43,000  Level Minneapolis Center
Wed 09:41:50 AM 45.9467 -87.5814 303° West 386 444 43,000  Level Minneapolis Center
Wed 09:42:52 AM 46.0039 -87.7114 302° West 385 443 43,000  Level Minneapolis Center
Wed 09:43:54 AM 46.0614 -87.8400 303° West 384 442 43,000  Level Minneapolis Center
Wed 09:44:55 AM 46.1183 -87.9703 302° West 385 443 43,000  Level Minneapolis Center
Wed 09:45:57 AM 46.1744 -88.0992 302° West 382 440 43,000  Level Minneapolis Center
Wed 09:46:59 AM 46.2389 -88.2481 302° West 385 443 43,000  Level Minneapolis Center
Wed 09:48:01 AM 46.2956 -88.3792 302° West 386 444 43,000  Level Minneapolis Center
Wed 09:49:02 AM 46.3525 -88.5103 302° West 387 445 43,000  Level Minneapolis Center
Wed 09:50:04 AM 46.4092 -88.6431 302° West 390 449 43,000  Level Minneapolis Center
Wed 09:51:06 AM 46.4658 -88.7750 302° West 389 448 43,000  Level Minneapolis Center
Wed 09:52:08 AM 46.5331 -88.9333 302° West 388 447 43,000  Level Minneapolis Center
Wed 09:53:09 AM 46.5886 -89.0675 301° West 389 448 43,000  Level Minneapolis Center
Wed 09:54:11 AM 46.6442 -89.2000 301° West 388 447 43,000  Level Minneapolis Center
Wed 09:55:13 AM 46.6989 -89.3314 301° West 384 442 43,000  Level Minneapolis Center
Wed 09:56:15 AM 46.7525 -89.4622 301° West 380 437 43,000  Level Minneapolis Center
Wed 09:57:17 AM 46.8067 -89.5933 301° West 379 436 43,000  Level Minneapolis Center
Wed 09:58:18 AM 46.8614 -89.7258 301° West 383 441 43,000  Level Minneapolis Center
Wed 09:59:20 AM 46.9256 -89.8833 301° West 379 436 43,000  Level Minneapolis Center
Wed 10:00:22 AM 46.9792 -90.0158 301° West 379 436 43,000  Level Minneapolis Center
Wed 10:01:24 AM 47.0344 -90.1500 301° West 383 441 43,000  Level Minneapolis Center
Wed 10:02:26 AM 47.0864 -90.2836 300° West 381 438 43,000  Level Minneapolis Center
Wed 10:03:28 AM 47.1411 -90.4183 301° West 381 438 43,000  Level Minneapolis Center
Wed 10:04:29 AM 47.1953 -90.5533 301° West 383 441 43,000  Level Minneapolis Center
Wed 10:05:31 AM 47.2483 -90.6872 300° West 383 441 43,000  Level Minneapolis Center
Wed 10:06:33 AM 47.3125 -90.8492 300° West 382 440 43,000  Level Minneapolis Center
Wed 10:07:35 AM 47.3658 -90.9847 300° West 384 442 43,000  Level Minneapolis Center
Wed 10:08:37 AM 47.4181 -91.1214 299° West 383 441 43,000  Level Minneapolis Center
Wed 10:09:39 AM 47.4725 -91.2583 300° West 386 444 43,000  Level Minneapolis Center
Wed 10:10:40 AM 47.5250 -91.3950 300° West 386 444 43,000  Level Minneapolis Center
Wed 10:11:42 AM 47.5783 -91.5339 300° West 387 445 43,000  Level Minneapolis Center
Wed 10:12:44 AM 47.6417 -91.7000 300° West 388 447 43,000  Level Minneapolis Center
Wed 10:13:46 AM 47.6953 -91.8383 300° West 389 448 43,000  Level Minneapolis Center
Wed 10:14:48 AM 47.7486 -91.9803 299° West 388 447 43,000  Level Minneapolis Center
Wed 10:15:50 AM 47.7994 -92.1139 300° West 385 443 43,000  Level Minneapolis Center
Wed 10:16:52 AM 47.8500 -92.2525 299° West 384 442 43,000  Level Minneapolis Center
Wed 10:17:54 AM 47.9031 -92.3917 300° West 388 447 43,000  Level Minneapolis Center
Wed 10:18:56 AM 47.9642 -92.5569 299° West 383 441 43,000  Level Minneapolis Center
Wed 10:19:58 AM 48.0158 -92.6969 299° West 387 445 43,000  Level Minneapolis Center
Wed 10:21:00 AM 48.0669 -92.8344 299° West 384 442 43,000  Level Minneapolis Center
Wed 10:22:01 AM 48.1167 -92.9722 298° West 381 438 43,000  Level Minneapolis Center
Wed 10:23:03 AM 48.1683 -93.1125 299° West 385 443 43,000  Level Minneapolis Center
Wed 10:24:05 AM 48.2286 -93.2847 298° West 389 448 43,000 -48 Level Minneapolis Center
Wed 10:25:07 AM 48.2794 -93.4267 298° West 388 447 42,900 -1,113 Descending Minneapolis Center
Wed 10:26:09 AM 48.3281 -93.5642 298° West 380 437 40,700 -2,274 Descending Minneapolis Center
Wed 10:27:11 AM 48.3769 -93.7039 298° West 380 437 38,200 -2,468 Descending Minneapolis Center
Wed 10:28:13 AM 48.4267 -93.8453 298° West 383 441 35,600 -2,758 Descending Minneapolis Center
Wed 10:29:15 AM 48.4764 -93.9858 298° West 382 440 32,500 -3,339 Descending Minneapolis Center
Wed 10:30:17 AM 48.5381 -94.1622 298° West 393 452 28,700 -3,629 Descending Minneapolis Center
Wed 10:31:19 AM 48.5889 -94.3108 297° West 400 460 25,000 -3,629 Descending Minneapolis Center
Wed 10:32:21 AM 48.6358 -94.4494 297° West 383 441 21,200 -3,726 Descending Minneapolis Center
Wed 10:33:23 AM 48.6811 -94.5769 298° West 358 412 17,300 -3,677 Descending Minneapolis Center
Wed 10:34:25 AM 48.7203 -94.7039 295° West 343 395 13,600 -3,435 Descending Minneapolis Center
Wed 10:35:27 AM 48.7350 -94.8378 280° West 326 375 10,200 -2,758 Descending Minneapolis Center
Wed 10:36:29 AM 48.7522 -94.9822 280° West 304 350 7,900 -2,516 Descending Minneapolis Center
Wed 10:37:31 AM 48.7650 -95.0878 280° West 296 341 5,000 -2,806 Descending Minneapolis Center
Wed 10:39:00 AM 48.8801 -95.2574 287° West  Level Estimated
Wed 10:46:00 AM 48.9333 -95.3333 307° West  Level FlightAware Approximate
Wed 10:47:00 AM 48.9415 -95.3485 307° West  Level Estimated

Login

Don't have an account? Register now (free) for customized features, flight alerts, and more!